sensor_id;sensor_type;location;lat;lon;timestamp;pressure;altitude;pressure_sealevel;temperature;humidity
76726;BME280;65651;53.154;17.916;2022-12-07T00:01:36;100350.20;;;2.18;89.13
76726;BME280;65651;53.154;17.916;2022-12-07T00:04:05;100348.06;;;2.18;89.05
76726;BME280;65651;53.154;17.916;2022-12-07T00:06:35;100347.16;;;2.21;89.16
76726;BME280;65651;53.154;17.916;2022-12-07T00:09:07;100346.20;;;2.20;89.22
76726;BME280;65651;53.154;17.916;2022-12-07T00:11:35;100342.04;;;2.18;88.93
76726;BME280;65651;53.154;17.916;2022-12-07T00:14:05;100343.81;;;2.18;88.88
76726;BME280;65651;53.154;17.916;2022-12-07T00:16:34;100343.81;;;2.18;89.05
76726;BME280;65651;53.154;17.916;2022-12-07T00:19:00;100346.16;;;2.18;89.24
76726;BME280;65651;53.154;17.916;2022-12-07T00:21:30;100343.80;;;2.18;88.99
76726;BME280;65651;53.154;17.916;2022-12-07T00:23:57;100342.55;;;2.16;88.85
76726;BME280;65651;53.154;17.916;2022-12-07T00:26:29;100335.19;;;2.14;88.92
76726;BME280;65651;53.154;17.916;2022-12-07T00:28:59;100334.13;;;2.14;88.89
76726;BME280;65651;53.154;17.916;2022-12-07T00:31:29;100334.71;;;2.13;88.88
76726;BME280;65651;53.154;17.916;2022-12-07T00:33:57;100332.20;;;2.08;89.09
76726;BME280;65651;53.154;17.916;2022-12-07T00:36:25;100335.44;;;2.07;88.96
76726;BME280;65651;53.154;17.916;2022-12-07T00:38:52;100335.84;;;2.07;89.15
76726;BME280;65651;53.154;17.916;2022-12-07T00:41:21;100335.43;;;2.07;89.19
76726;BME280;65651;53.154;17.916;2022-12-07T00:43:49;100338.37;;;2.09;88.87
76726;BME280;65651;53.154;17.916;2022-12-07T00:46:16;100334.44;;;2.10;89.00
76726;BME280;65651;53.154;17.916;2022-12-07T00:48:44;100333.08;;;2.09;88.94
76726;BME280;65651;53.154;17.916;2022-12-07T00:51:12;100329.48;;;2.06;88.99
76726;BME280;65651;53.154;17.916;2022-12-07T00:53:40;100328.77;;;2.07;88.97
76726;BME280;65651;53.154;17.916;2022-12-07T00:56:32;100326.63;;;2.05;89.09
76726;BME280;65651;53.154;17.916;2022-12-07T00:59:02;100324.30;;;2.05;89.35
76726;BME280;65651;53.154;17.916;2022-12-07T01:01:33;100321.71;;;2.04;89.37
76726;BME280;65651;53.154;17.916;2022-12-07T01:04:01;100320.76;;;2.02;89.05
76726;BME280;65651;53.154;17.916;2022-12-07T01:06:28;100320.62;;;2.01;89.20
76726;BME280;65651;53.154;17.916;2022-12-07T01:08:55;100319.84;;;2.00;89.22
76726;BME280;65651;53.154;17.916;2022-12-07T01:11:24;100318.71;;;2.01;89.09
76726;BME280;65651;53.154;17.916;2022-12-07T01:13:54;100317.54;;;2.03;89.14
76726;BME280;65651;53.154;17.916;2022-12-07T01:16:22;100316.10;;;2.03;89.30
76726;BME280;65651;53.154;17.916;2022-12-07T01:18:51;100314.66;;;2.06;89.28
76726;BME280;65651;53.154;17.916;2022-12-07T01:21:23;100311.83;;;2.06;89.20
76726;BME280;65651;53.154;17.916;2022-12-07T01:23:51;100309.11;;;2.04;89.38
76726;BME280;65651;53.154;17.916;2022-12-07T01:26:22;100307.20;;;2.04;89.16
76726;BME280;65651;53.154;17.916;2022-12-07T01:28:49;100302.86;;;2.03;89.23
76726;BME280;65651;53.154;17.916;2022-12-07T01:31:19;100302.10;;;2.00;89.12
76726;BME280;65651;53.154;17.916;2022-12-07T01:33:48;100296.89;;;1.99;89.30
76726;BME280;65651;53.154;17.916;2022-12-07T01:36:27;100298.77;;;2.00;89.34
76726;BME280;65651;53.154;17.916;2022-12-07T01:38:56;100293.96;;;2.00;89.18
76726;BME280;65651;53.154;17.916;2022-12-07T01:41:25;100291.80;;;2.04;89.08
76726;BME280;65651;53.154;17.916;2022-12-07T01:44:26;100290.38;;;2.06;89.18
76726;BME280;65651;53.154;17.916;2022-12-07T01:46:55;100283.86;;;2.09;89.24
76726;BME280;65651;53.154;17.916;2022-12-07T01:49:41;100283.14;;;2.11;89.34
76726;BME280;65651;53.154;17.916;2022-12-07T01:54:44;100276.95;;;2.11;89.30
76726;BME280;65651;53.154;17.916;2022-12-07T01:57:14;100276.46;;;2.13;89.37
76726;BME280;65651;53.154;17.916;2022-12-07T01:59:46;100272.33;;;2.14;89.36
76726;BME280;65651;53.154;17.916;2022-12-07T02:02:20;100271.67;;;2.13;89.22
76726;BME280;65651;53.154;17.916;2022-12-07T02:04:51;100266.59;;;2.10;89.08
76726;BME280;65651;53.154;17.916;2022-12-07T02:07:20;100264.23;;;2.08;89.00
76726;BME280;65651;53.154;17.916;2022-12-07T02:09:47;100261.89;;;2.09;89.19
76726;BME280;65651;53.154;17.916;2022-12-07T02:12:14;100261.92;;;2.09;89.19
76726;BME280;65651;53.154;17.916;2022-12-07T02:14:41;100261.05;;;2.08;89.17
76726;BME280;65651;53.154;17.916;2022-12-07T02:27:51;100258.16;;;2.14;89.47
76726;BME280;65651;53.154;17.916;2022-12-07T02:30:20;100260.75;;;2.16;89.61
76726;BME280;65651;53.154;17.916;2022-12-07T02:35:33;100260.73;;;2.19;89.46
76726;BME280;65651;53.154;17.916;2022-12-07T02:38:15;100259.35;;;2.21;89.56
76726;BME280;65651;53.154;17.916;2022-12-07T02:41:10;100263.86;;;2.22;89.29
76726;BME280;65651;53.154;17.916;2022-12-07T02:43:42;100258.54;;;2.25;89.56
76726;BME280;65651;53.154;17.916;2022-12-07T02:46:18;100258.93;;;2.27;89.86
76726;BME280;65651;53.154;17.916;2022-12-07T02:48:47;100255.89;;;2.30;89.51
76726;BME280;65651;53.154;17.916;2022-12-07T02:51:14;100251.30;;;2.32;89.46
76726;BME280;65651;53.154;17.916;2022-12-07T02:53:44;100248.54;;;2.37;89.73
76726;BME280;65651;53.154;17.916;2022-12-07T03:05:10;100244.10;;;2.50;89.90
76726;BME280;65651;53.154;17.916;2022-12-07T03:13:31;100238.56;;;2.59;89.53
76726;BME280;65651;53.154;17.916;2022-12-07T03:16:37;100234.85;;;2.61;89.63
76726;BME280;65651;53.154;17.916;2022-12-07T03:19:13;100235.39;;;2.61;89.44
76726;BME280;65651;53.154;17.916;2022-12-07T03:22:05;100234.21;;;2.62;89.61
76726;BME280;65651;53.154;17.916;2022-12-07T03:24:39;100235.02;;;2.63;89.47
76726;BME280;65651;53.154;17.916;2022-12-07T03:27:16;100232.48;;;2.64;89.47
76726;BME280;65651;53.154;17.916;2022-12-07T03:29:59;100239.56;;;2.65;89.58
76726;BME280;65651;53.154;17.916;2022-12-07T03:35:17;100240.86;;;2.64;89.30
76726;BME280;65651;53.154;17.916;2022-12-07T03:42:49;100234.29;;;2.64;89.12
76726;BME280;65651;53.154;17.916;2022-12-07T03:45:17;100234.17;;;2.60;89.29
76726;BME280;65651;53.154;17.916;2022-12-07T03:53:22;100226.31;;;2.56;89.28
76726;BME280;65651;53.154;17.916;2022-12-07T03:55:52;100220.27;;;2.56;89.17
76726;BME280;65651;53.154;17.916;2022-12-07T03:58:21;100216.41;;;2.56;89.14
76726;BME280;65651;53.154;17.916;2022-12-07T04:00:49;100215.09;;;2.55;89.15
76726;BME280;65651;53.154;17.916;2022-12-07T04:03:16;100214.27;;;2.54;89.20
76726;BME280;65651;53.154;17.916;2022-12-07T04:05:43;100210.08;;;2.53;89.11
76726;BME280;65651;53.154;17.916;2022-12-07T04:08:10;100214.47;;;2.51;88.85
76726;BME280;65651;53.154;17.916;2022-12-07T04:10:37;100210.76;;;2.48;88.90
76726;BME280;65651;53.154;17.916;2022-12-07T04:13:03;100210.22;;;2.46;88.84
76726;BME280;65651;53.154;17.916;2022-12-07T04:15:30;100212.10;;;2.44;88.58
76726;BME280;65651;53.154;17.916;2022-12-07T04:17:57;100210.52;;;2.43;89.13
76726;BME280;65651;53.154;17.916;2022-12-07T04:20:24;100209.45;;;2.41;88.98
76726;BME280;65651;53.154;17.916;2022-12-07T04:22:51;100211.65;;;2.37;88.93
76726;BME280;65651;53.154;17.916;2022-12-07T04:25:17;100210.85;;;2.36;88.76
76726;BME280;65651;53.154;17.916;2022-12-07T04:27:44;100207.71;;;2.35;88.72
76726;BME280;65651;53.154;17.916;2022-12-07T04:30:11;100203.44;;;2.33;88.72
76726;BME280;65651;53.154;17.916;2022-12-07T04:32:37;100196.64;;;2.31;88.80
76726;BME280;65651;53.154;17.916;2022-12-07T04:35:05;100202.30;;;2.29;88.60
76726;BME280;65651;53.154;17.916;2022-12-07T04:37:32;100198.86;;;2.28;88.77
76726;BME280;65651;53.154;17.916;2022-12-07T04:39:58;100198.92;;;2.27;88.61
76726;BME280;65651;53.154;17.916;2022-12-07T04:42:25;100197.08;;;2.25;88.63
76726;BME280;65651;53.154;17.916;2022-12-07T04:44:52;100202.64;;;2.19;88.44
76726;BME280;65651;53.154;17.916;2022-12-07T04:47:18;100196.16;;;2.09;88.62
76726;BME280;65651;53.154;17.916;2022-12-07T04:49:45;100195.28;;;2.04;88.46
76726;BME280;65651;53.154;17.916;2022-12-07T04:52:12;100194.99;;;2.01;88.66
76726;BME280;65651;53.154;17.916;2022-12-07T04:54:40;100195.16;;;1.96;88.44
76726;BME280;65651;53.154;17.916;2022-12-07T04:57:06;100196.59;;;1.90;88.71
76726;BME280;65651;53.154;17.916;2022-12-07T04:59:37;100193.25;;;1.84;88.41
76726;BME280;65651;53.154;17.916;2022-12-07T05:02:04;100196.63;;;1.84;88.16
76726;BME280;65651;53.154;17.916;2022-12-07T05:04:30;100193.86;;;1.80;88.31
76726;BME280;65651;53.154;17.916;2022-12-07T05:06:57;100194.22;;;1.75;88.48
76726;BME280;65651;53.154;17.916;2022-12-07T05:09:23;100191.65;;;1.68;88.31
76726;BME280;65651;53.154;17.916;2022-12-07T05:11:50;100191.07;;;1.64;88.27
76726;BME280;65651;53.154;17.916;2022-12-07T05:14:19;100191.33;;;1.59;88.33
76726;BME280;65651;53.154;17.916;2022-12-07T05:16:48;100189.17;;;1.55;88.40
76726;BME280;65651;53.154;17.916;2022-12-07T05:19:16;100190.45;;;1.46;88.05
76726;BME280;65651;53.154;17.916;2022-12-07T05:21:46;100189.58;;;1.40;87.99
76726;BME280;65651;53.154;17.916;2022-12-07T05:24:14;100185.46;;;1.36;88.07
76726;BME280;65651;53.154;17.916;2022-12-07T05:26:41;100187.05;;;1.30;88.14
76726;BME280;65651;53.154;17.916;2022-12-07T05:29:11;100187.08;;;1.26;87.94
76726;BME280;65651;53.154;17.916;2022-12-07T05:31:38;100189.29;;;1.22;88.11
76726;BME280;65651;53.154;17.916;2022-12-07T05:34:06;100184.84;;;1.20;87.95
76726;BME280;65651;53.154;17.916;2022-12-07T05:36:32;100185.36;;;1.15;87.98
76726;BME280;65651;53.154;17.916;2022-12-07T05:38:59;100188.95;;;1.08;87.87
76726;BME280;65651;53.154;17.916;2022-12-07T05:41:26;100187.96;;;1.01;87.86
76726;BME280;65651;53.154;17.916;2022-12-07T05:44:11;100198.73;;;0.96;87.89
76726;BME280;65651;53.154;17.916;2022-12-07T05:46:38;100204.65;;;0.92;87.81
76726;BME280;65651;53.154;17.916;2022-12-07T05:49:05;100201.04;;;0.87;87.84
76726;BME280;65651;53.154;17.916;2022-12-07T05:51:31;100202.17;;;0.83;87.83
76726;BME280;65651;53.154;17.916;2022-12-07T05:53:58;100206.06;;;0.80;88.03
76726;BME280;65651;53.154;17.916;2022-12-07T05:56:25;100204.48;;;0.77;87.80
76726;BME280;65651;53.154;17.916;2022-12-07T05:58:53;100201.95;;;0.75;88.06
76726;BME280;65651;53.154;17.916;2022-12-07T06:01:39;100204.30;;;0.74;87.97
76726;BME280;65651;53.154;17.916;2022-12-07T06:04:06;100204.99;;;0.72;87.99
76726;BME280;65651;53.154;17.916;2022-12-07T06:06:32;100205.37;;;0.69;87.90
76726;BME280;65651;53.154;17.916;2022-12-07T06:08:59;100205.81;;;0.64;88.00
76726;BME280;65651;53.154;17.916;2022-12-07T06:11:26;100208.58;;;0.63;88.06
76726;BME280;65651;53.154;17.916;2022-12-07T06:14:11;100209.77;;;0.60;88.10
76726;BME280;65651;53.154;17.916;2022-12-07T06:16:38;100207.36;;;0.56;88.04
76726;BME280;65651;53.154;17.916;2022-12-07T06:19:04;100206.04;;;0.51;88.23
76726;BME280;65651;53.154;17.916;2022-12-07T06:21:31;100203.28;;;0.47;88.16
76726;BME280;65651;53.154;17.916;2022-12-07T06:23:58;100205.98;;;0.46;88.05
76726;BME280;65651;53.154;17.916;2022-12-07T06:26:24;100203.48;;;0.44;88.25
76726;BME280;65651;53.154;17.916;2022-12-07T06:28:51;100200.61;;;0.42;88.13
76726;BME280;65651;53.154;17.916;2022-12-07T06:31:20;100201.29;;;0.40;88.28
76726;BME280;65651;53.154;17.916;2022-12-07T06:33:47;100200.91;;;0.40;88.27
76726;BME280;65651;53.154;17.916;2022-12-07T06:36:13;100199.98;;;0.41;88.29
76726;BME280;65651;53.154;17.916;2022-12-07T06:38:40;100204.45;;;0.40;88.37
76726;BME280;65651;53.154;17.916;2022-12-07T06:41:07;100207.25;;;0.40;88.31
76726;BME280;65651;53.154;17.916;2022-12-07T06:43:34;100210.80;;;0.40;88.20
76726;BME280;65651;53.154;17.916;2022-12-07T06:46:00;100210.66;;;0.40;88.39
76726;BME280;65651;53.154;17.916;2022-12-07T06:48:28;100212.64;;;0.39;88.33
76726;BME280;65651;53.154;17.916;2022-12-07T06:50:54;100212.02;;;0.40;88.38
76726;BME280;65651;53.154;17.916;2022-12-07T06:53:21;100204.37;;;0.41;88.32
76726;BME280;65651;53.154;17.916;2022-12-07T06:55:49;100206.15;;;0.44;88.40
76726;BME280;65651;53.154;17.916;2022-12-07T06:58:15;100205.33;;;0.46;88.43
76726;BME280;65651;53.154;17.916;2022-12-07T07:00:43;100203.45;;;0.47;88.39
76726;BME280;65651;53.154;17.916;2022-12-07T07:03:10;100199.23;;;0.50;88.27
76726;BME280;65651;53.154;17.916;2022-12-07T07:05:36;100197.21;;;0.52;88.32
76726;BME280;65651;53.154;17.916;2022-12-07T07:08:03;100192.83;;;0.51;88.46
76726;BME280;65651;53.154;17.916;2022-12-07T07:10:30;100192.95;;;0.52;88.30
76726;BME280;65651;53.154;17.916;2022-12-07T07:12:56;100195.14;;;0.53;88.22
76726;BME280;65651;53.154;17.916;2022-12-07T07:15:23;100196.27;;;0.56;88.43
76726;BME280;65651;53.154;17.916;2022-12-07T07:17:50;100194.36;;;0.55;88.35
76726;BME280;65651;53.154;17.916;2022-12-07T07:20:16;100196.33;;;0.58;88.31
76726;BME280;65651;53.154;17.916;2022-12-07T07:22:43;100192.18;;;0.59;88.29
76726;BME280;65651;53.154;17.916;2022-12-07T07:25:09;100187.98;;;0.61;88.14
76726;BME280;65651;53.154;17.916;2022-12-07T07:27:39;100188.45;;;0.65;88.20
76726;BME280;65651;53.154;17.916;2022-12-07T07:30:06;100185.69;;;0.67;88.16
76726;BME280;65651;53.154;17.916;2022-12-07T07:32:33;100191.58;;;0.69;88.16
76726;BME280;65651;53.154;17.916;2022-12-07T07:34:59;100193.69;;;0.72;88.08
76726;BME280;65651;53.154;17.916;2022-12-07T07:37:26;100194.70;;;0.76;88.25
76726;BME280;65651;53.154;17.916;2022-12-07T07:39:52;100197.46;;;0.79;88.10
76726;BME280;65651;53.154;17.916;2022-12-07T07:42:19;100193.71;;;0.83;88.04
76726;BME280;65651;53.154;17.916;2022-12-07T07:44:46;100189.91;;;0.87;87.84
76726;BME280;65651;53.154;17.916;2022-12-07T07:47:13;100181.98;;;0.90;87.87
76726;BME280;65651;53.154;17.916;2022-12-07T07:49:39;100176.70;;;0.93;87.82
76726;BME280;65651;53.154;17.916;2022-12-07T07:52:07;100178.34;;;0.94;87.92
76726;BME280;65651;53.154;17.916;2022-12-07T07:54:33;100174.89;;;0.96;87.90
76726;BME280;65651;53.154;17.916;2022-12-07T07:57:00;100177.23;;;0.95;87.81
76726;BME280;65651;53.154;17.916;2022-12-07T07:59:27;100180.92;;;0.98;87.96
76726;BME280;65651;53.154;17.916;2022-12-07T08:01:53;100179.78;;;1.00;87.99
76726;BME280;65651;53.154;17.916;2022-12-07T08:04:22;100178.27;;;1.01;87.75
76726;BME280;65651;53.154;17.916;2022-12-07T08:06:49;100174.06;;;1.00;87.84
76726;BME280;65651;53.154;17.916;2022-12-07T08:09:15;100175.23;;;1.01;87.61
76726;BME280;65651;53.154;17.916;2022-12-07T08:11:42;100176.86;;;1.04;87.80
76726;BME280;65651;53.154;17.916;2022-12-07T08:14:10;100176.48;;;1.07;87.70
76726;BME280;65651;53.154;17.916;2022-12-07T08:16:37;100180.32;;;1.11;87.91
76726;BME280;65651;53.154;17.916;2022-12-07T08:19:05;100177.91;;;1.15;87.78
76726;BME280;65651;53.154;17.916;2022-12-07T08:21:32;100178.55;;;1.19;87.82
76726;BME280;65651;53.154;17.916;2022-12-07T08:23:58;100176.32;;;1.24;87.80
76726;BME280;65651;53.154;17.916;2022-12-07T08:26:25;100175.66;;;1.28;87.77
76726;BME280;65651;53.154;17.916;2022-12-07T08:28:52;100173.05;;;1.30;87.75
76726;BME280;65651;53.154;17.916;2022-12-07T08:31:20;100168.52;;;1.35;87.83
76726;BME280;65651;53.154;17.916;2022-12-07T08:33:49;100162.95;;;1.36;87.83
76726;BME280;65651;53.154;17.916;2022-12-07T08:36:17;100162.81;;;1.39;87.68
76726;BME280;65651;53.154;17.916;2022-12-07T08:38:44;100164.20;;;1.39;87.79
76726;BME280;65651;53.154;17.916;2022-12-07T08:41:11;100163.71;;;1.41;87.91
76726;BME280;65651;53.154;17.916;2022-12-07T08:43:37;100161.59;;;1.41;87.74
76726;BME280;65651;53.154;17.916;2022-12-07T08:48:56;100159.29;;;1.33;87.76
76726;BME280;65651;53.154;17.916;2022-12-07T08:51:24;100158.42;;;1.35;87.80
76726;BME280;65651;53.154;17.916;2022-12-07T08:53:55;100157.93;;;1.38;87.68
76726;BME280;65651;53.154;17.916;2022-12-07T08:56:22;100153.90;;;1.42;87.91
76726;BME280;65651;53.154;17.916;2022-12-07T08:58:49;100149.58;;;1.49;88.02
76726;BME280;65651;53.154;17.916;2022-12-07T09:01:15;100149.27;;;1.56;87.85
76726;BME280;65651;53.154;17.916;2022-12-07T09:03:42;100142.52;;;1.59;87.82
76726;BME280;65651;53.154;17.916;2022-12-07T09:06:11;100145.82;;;1.66;87.88
76726;BME280;65651;53.154;17.916;2022-12-07T09:08:45;100141.65;;;1.73;87.72
76726;BME280;65651;53.154;17.916;2022-12-07T09:11:14;100139.55;;;1.77;87.70
76726;BME280;65651;53.154;17.916;2022-12-07T09:13:41;100132.73;;;1.84;87.64
76726;BME280;65651;53.154;17.916;2022-12-07T09:16:07;100127.19;;;1.91;87.59
76726;BME280;65651;53.154;17.916;2022-12-07T09:18:34;100122.09;;;1.98;87.51
76726;BME280;65651;53.154;17.916;2022-12-07T09:21:01;100116.53;;;2.01;87.57
76726;BME280;65651;53.154;17.916;2022-12-07T09:23:27;100118.42;;;2.05;87.36
76726;BME280;65651;53.154;17.916;2022-12-07T09:25:54;100114.00;;;2.07;87.57
76726;BME280;65651;53.154;17.916;2022-12-07T09:28:23;100111.89;;;2.05;87.37
76726;BME280;65651;53.154;17.916;2022-12-07T09:30:49;100112.95;;;2.02;87.11
76726;BME280;65651;53.154;17.916;2022-12-07T09:33:16;100109.00;;;2.00;87.28
76726;BME280;65651;53.154;17.916;2022-12-07T09:35:49;100108.38;;;1.99;87.29
76726;BME280;65651;53.154;17.916;2022-12-07T09:38:17;100101.98;;;2.02;87.06
76726;BME280;65651;53.154;17.916;2022-12-07T09:40:46;100094.89;;;2.10;87.13
76726;BME280;65651;53.154;17.916;2022-12-07T09:43:16;100093.79;;;2.13;87.27
76726;BME280;65651;53.154;17.916;2022-12-07T09:45:44;100086.95;;;2.14;87.27
76726;BME280;65651;53.154;17.916;2022-12-07T09:48:29;100085.71;;;2.15;87.10
76726;BME280;65651;53.154;17.916;2022-12-07T09:50:58;100084.77;;;2.21;86.93
76726;BME280;65651;53.154;17.916;2022-12-07T09:53:28;100086.89;;;2.21;86.95
76726;BME280;65651;53.154;17.916;2022-12-07T09:55:56;100085.90;;;2.20;87.21
76726;BME280;65651;53.154;17.916;2022-12-07T09:58:26;100084.96;;;2.20;87.10
76726;BME280;65651;53.154;17.916;2022-12-07T10:00:58;100081.13;;;2.23;86.97
76726;BME280;65651;53.154;17.916;2022-12-07T10:03:28;100082.49;;;2.26;86.97
76726;BME280;65651;53.154;17.916;2022-12-07T10:05:55;100079.30;;;2.25;87.20
76726;BME280;65651;53.154;17.916;2022-12-07T10:08:24;100080.39;;;2.20;87.10
76726;BME280;65651;53.154;17.916;2022-12-07T10:10:54;100075.52;;;2.16;86.98
76726;BME280;65651;53.154;17.916;2022-12-07T10:13:39;100076.64;;;2.15;86.99
76726;BME280;65651;53.154;17.916;2022-12-07T10:16:39;100071.73;;;2.12;87.05
76726;BME280;65651;53.154;17.916;2022-12-07T10:19:26;100068.92;;;2.11;86.93
76726;BME280;65651;53.154;17.916;2022-12-07T10:22:32;100066.42;;;2.15;86.81
76726;BME280;65651;53.154;17.916;2022-12-07T10:24:52;100060.35;;;2.10;86.69
76726;BME280;65651;53.154;17.916;2022-12-07T10:27:19;100052.12;;;2.06;86.95
76726;BME280;65651;53.154;17.916;2022-12-07T10:29:51;100055.48;;;2.06;86.90
76726;BME280;65651;53.154;17.916;2022-12-07T10:34:45;100053.32;;;2.07;86.89
76726;BME280;65651;53.154;17.916;2022-12-07T10:42:30;100037.51;;;2.13;86.89
76726;BME280;65651;53.154;17.916;2022-12-07T10:45:17;100031.29;;;2.13;86.96
76726;BME280;65651;53.154;17.916;2022-12-07T11:00:25;100015.70;;;2.16;87.08
76726;BME280;65651;53.154;17.916;2022-12-07T11:11:21;100000.66;;;2.11;87.27
76726;BME280;65651;53.154;17.916;2022-12-07T11:19:17;99991.89;;;2.10;87.24
76726;BME280;65651;53.154;17.916;2022-12-07T11:24:43;99990.70;;;2.04;87.10
76726;BME280;65651;53.154;17.916;2022-12-07T11:31:10;99980.95;;;2.12;87.16
76726;BME280;65651;53.154;17.916;2022-12-07T11:33:29;99982.05;;;2.19;87.06
76726;BME280;65651;53.154;17.916;2022-12-07T11:36:33;99972.70;;;2.21;87.10
76726;BME280;65651;53.154;17.916;2022-12-07T11:39:04;99967.73;;;2.21;86.85
76726;BME280;65651;53.154;17.916;2022-12-07T11:41:39;99963.13;;;2.25;87.07
76726;BME280;65651;53.154;17.916;2022-12-07T11:47:13;99961.35;;;2.24;86.84
76726;BME280;65651;53.154;17.916;2022-12-07T11:49:49;99961.15;;;2.24;86.91
76726;BME280;65651;53.154;17.916;2022-12-07T11:52:25;99956.91;;;2.21;86.99
76726;BME280;65651;53.154;17.916;2022-12-07T11:54:54;99958.68;;;2.23;87.13
76726;BME280;65651;53.154;17.916;2022-12-07T11:57:28;99958.62;;;2.24;86.92
76726;BME280;65651;53.154;17.916;2022-12-07T12:00:01;99955.48;;;2.22;86.81
76726;BME280;65651;53.154;17.916;2022-12-07T12:05:48;99950.64;;;2.22;86.84
76726;BME280;65651;53.154;17.916;2022-12-07T12:25:05;99934.11;;;1.88;86.75
76726;BME280;65651;53.154;17.916;2022-12-07T12:27:35;99932.46;;;1.81;86.73
76726;BME280;65651;53.154;17.916;2022-12-07T12:30:23;99934.80;;;1.78;87.06
76726;BME280;65651;53.154;17.916;2022-12-07T12:32:51;99933.31;;;1.77;86.88
76726;BME280;65651;53.154;17.916;2022-12-07T12:37:47;99929.08;;;1.71;86.93
76726;BME280;65651;53.154;17.916;2022-12-07T12:42:47;99922.98;;;1.78;87.36
76726;BME280;65651;53.154;17.916;2022-12-07T12:50:21;99920.81;;;1.88;86.99
76726;BME280;65651;53.154;17.916;2022-12-07T12:52:52;99917.24;;;1.92;87.46
76726;BME280;65651;53.154;17.916;2022-12-07T12:55:29;99917.54;;;1.95;86.89
76726;BME280;65651;53.154;17.916;2022-12-07T13:01:30;99914.44;;;1.96;87.29
76726;BME280;65651;53.154;17.916;2022-12-07T13:03:35;99914.78;;;1.94;87.20
76726;BME280;65651;53.154;17.916;2022-12-07T13:06:31;99912.54;;;1.90;87.32
76726;BME280;65651;53.154;17.916;2022-12-07T13:09:02;99909.15;;;1.83;87.25
76726;BME280;65651;53.154;17.916;2022-12-07T13:11:32;99912.89;;;1.80;87.21
76726;BME280;65651;53.154;17.916;2022-12-07T13:20:05;99910.59;;;1.70;87.37
76726;BME280;65651;53.154;17.916;2022-12-07T13:22:40;99906.77;;;1.72;87.52
76726;BME280;65651;53.154;17.916;2022-12-07T13:27:37;99907.58;;;1.70;87.80
76726;BME280;65651;53.154;17.916;2022-12-07T13:30:19;99909.70;;;1.68;87.52
76726;BME280;65651;53.154;17.916;2022-12-07T13:32:57;99908.48;;;1.68;87.55
76726;BME280;65651;53.154;17.916;2022-12-07T13:35:32;99913.35;;;1.69;87.58
76726;BME280;65651;53.154;17.916;2022-12-07T13:38:02;99916.36;;;1.69;87.65
76726;BME280;65651;53.154;17.916;2022-12-07T13:40:30;99918.80;;;1.69;87.54
76726;BME280;65651;53.154;17.916;2022-12-07T13:43:01;99918.14;;;1.71;87.75
76726;BME280;65651;53.154;17.916;2022-12-07T13:45:32;99917.59;;;1.71;87.82
76726;BME280;65651;53.154;17.916;2022-12-07T13:48:46;99920.75;;;1.69;87.63
76726;BME280;65651;53.154;17.916;2022-12-07T13:51:20;99920.86;;;1.65;87.82
76726;BME280;65651;53.154;17.916;2022-12-07T13:53:49;99917.97;;;1.61;87.85
76726;BME280;65651;53.154;17.916;2022-12-07T13:56:18;99918.50;;;1.56;87.70
76726;BME280;65651;53.154;17.916;2022-12-07T13:58:47;99917.02;;;1.54;87.88
76726;BME280;65651;53.154;17.916;2022-12-07T14:01:14;99920.89;;;1.55;87.95
76726;BME280;65651;53.154;17.916;2022-12-07T14:03:41;99918.27;;;1.53;88.05
76726;BME280;65651;53.154;17.916;2022-12-07T14:06:15;99920.02;;;1.56;87.91
76726;BME280;65651;53.154;17.916;2022-12-07T14:09:09;99923.75;;;1.59;87.99
76726;BME280;65651;53.154;17.916;2022-12-07T14:11:41;99923.36;;;1.57;87.94
76726;BME280;65651;53.154;17.916;2022-12-07T14:14:14;99921.26;;;1.57;88.01
76726;BME280;65651;53.154;17.916;2022-12-07T14:16:42;99923.86;;;1.57;88.01
76726;BME280;65651;53.154;17.916;2022-12-07T14:22:37;99925.38;;;1.51;87.99
76726;BME280;65651;53.154;17.916;2022-12-07T14:27:47;99924.20;;;1.50;88.16
76726;BME280;65651;53.154;17.916;2022-12-07T14:30:16;99925.92;;;1.46;88.14
76726;BME280;65651;53.154;17.916;2022-12-07T14:32:44;99925.05;;;1.40;87.82
76726;BME280;65651;53.154;17.916;2022-12-07T14:35:16;99929.14;;;1.37;87.91
76726;BME280;65651;53.154;17.916;2022-12-07T14:37:45;99932.54;;;1.37;87.89
76726;BME280;65651;53.154;17.916;2022-12-07T14:40:21;99931.17;;;1.36;88.10
76726;BME280;65651;53.154;17.916;2022-12-07T14:42:54;99931.69;;;1.36;88.22
76726;BME280;65651;53.154;17.916;2022-12-07T14:45:23;99929.90;;;1.39;87.92
76726;BME280;65651;53.154;17.916;2022-12-07T14:47:49;99931.23;;;1.40;88.13
76726;BME280;65651;53.154;17.916;2022-12-07T14:50:18;99930.68;;;1.41;88.10
76726;BME280;65651;53.154;17.916;2022-12-07T14:52:55;99926.40;;;1.39;88.13
76726;BME280;65651;53.154;17.916;2022-12-07T14:55:26;99927.56;;;1.40;88.05
76726;BME280;65651;53.154;17.916;2022-12-07T14:57:53;99929.56;;;1.39;88.13
76726;BME280;65651;53.154;17.916;2022-12-07T15:00:22;99933.52;;;1.35;88.19
76726;BME280;65651;53.154;17.916;2022-12-07T15:02:50;99934.95;;;1.32;88.28
76726;BME280;65651;53.154;17.916;2022-12-07T15:05:17;99934.63;;;1.29;88.14
76726;BME280;65651;53.154;17.916;2022-12-07T15:07:45;99936.55;;;1.27;88.01
76726;BME280;65651;53.154;17.916;2022-12-07T15:10:21;99935.31;;;1.27;88.29
76726;BME280;65651;53.154;17.916;2022-12-07T15:12:48;99936.71;;;1.27;88.09
76726;BME280;65651;53.154;17.916;2022-12-07T15:15:15;99939.94;;;1.27;88.11
76726;BME280;65651;53.154;17.916;2022-12-07T15:17:41;99936.71;;;1.27;88.12
76726;BME280;65651;53.154;17.916;2022-12-07T15:20:13;99936.91;;;1.27;88.16
76726;BME280;65651;53.154;17.916;2022-12-07T15:22:40;99934.90;;;1.28;88.24
76726;BME280;65651;53.154;17.916;2022-12-07T15:25:07;99935.08;;;1.28;88.20
76726;BME280;65651;53.154;17.916;2022-12-07T15:27:34;99937.23;;;1.27;88.01